La Crosse, WI

11:40 PM CST on November 22, 2014 (GMT -0600)
La Crosse - Downtown | Change Station
CLOSE
Current Station
Personal Weather Station
Location: La Crosse, WI
Elevation: 682 ft
Nearby Weather Stations
Active Advisory: Special Statement Active Notice: Public Information Statement

Elev 682 ft 43.82 °N, 91.25 °W | Updated 6 minutes ago

Overcast
Overcast
46.8 °F
Feels Like 42 °F
N
10.0
Wind Variable Wind from SSE
Gusts 15.0 mph

Today
High -- | Low -- °F
--% Chance of Precip.
Yesterday
High -- | Low -- °F
Precip. -- in
7:08 AM 4:33 PM
New Moon, 1% visible
Pressure 29.65 in
Visibility 1.2 miles
Clouds Overcast 300 ft
Windchill 42 °F
Dew Point 46 °F
Humidity 97%
Rainfall 0.00 in
Snow Depth Not available.
UV 0 out of 12
Pollen .10 out of 12
Air Quality Not available.
Flu Activity Not available.
METAR KLSE 230453Z AUTO 19011KT 1 1/4SM BR OVC003 08/07 A2963 RMK AO2 SLP040 T00830072

More Conditions Fewer Conditions

Pressure 29.65 in
Visibility 1.2 miles
Clouds Overcast 300 ft
Windchill 42 °F
Dew Point 46 °F
Humidity 97%
Rainfall 0.00 in
Snow Depth Not available.
UV 0 out of 12
Pollen .10 out of 12
Air Quality Not available.
Flu Activity Not available.
METAR KLSE 230453Z AUTO 19011KT 1 1/4SM BR OVC003 08/07 A2963 RMK AO2 SLP040 T00830072

More Conditions Fewer Conditions

10-Day Weather Forecast

Almanac

Astronomy

Nov. 22, 2014 Rise Set
Actual Time
Civil Twilight
Nautical Twilight
Astronomical Twilight
Moon
Length of Visible Light
Length of Day
Tomorrow will be .
, % of the Moon is Illuminated

Today's Extremes

State Highs State Lows

Community

WunderPhotos

Upload Photos

1,773,017 photos uploaded!

WunderBlogs® & News

Nearby

Air Quality

  Air Quality AQ Index Pollutant
Not available.

Snow Depth

Station Depth Elevation

Earthquake Activity

City Distance Mag. Time & Date
Minimum magnitude displayed is 2.5.

Coastal Water Temperatures

Place Temperature

Nearby Weather Stations